Time;durP1;ratioP1;P1;durP2;ratioP2;P2;SDS_P1;SDS_P2;PMS_P1;PMS_P2;Temp;Humidity;BMP_temperature;BMP_pressure;BME280_temperature;BME280_humidity;BME280_pressure;Samples;Min_cycle;Max_cycle;Signal;HPM_P1;HPM_P2
2023/07/22 00:01:37;;;;;;;3.58;2.95;;;;;;;;;;4934131;29;20043;-71
2023/07/22 00:04:04;;;;;;;6.10;3.05;;;;;;;;;;4934083;29;20039;-71
2023/07/22 00:06:30;;;;;;;4.13;3.05;;;;;;;;;;4933819;29;20411;-71
2023/07/22 00:08:56;;;;;;;3.95;3.03;;;;;;;;;;4934106;29;20039;-70
2023/07/22 00:11:22;;;;;;;5.95;3.40;;;;;;;;;;4933667;29;20035;-71
2023/07/22 00:13:48;;;;;;;5.50;3.00;;;;;;;;;;4933977;29;20514;-71
2023/07/22 00:16:14;;;;;;;3.30;2.95;;;;;;;;;;4933659;29;20040;-70
2023/07/22 00:18:41;;;;;;;8.18;2.60;;;;;;;;;;4933972;29;20046;-69
2023/07/22 00:21:08;;;;;;;4.53;2.50;;;;;;;;;;4932641;29;20057;-70
2023/07/22 00:23:34;;;;;;;4.13;2.55;;;;;;;;;;4932378;29;20067;-70
2023/07/22 00:26:00;;;;;;;7.30;2.45;;;;;;;;;;4933883;29;20032;-70
2023/07/22 00:28:27;;;;;;;3.15;2.85;;;;;;;;;;4933567;29;20070;-70
2023/07/22 00:30:53;;;;;;;4.53;2.60;;;;;;;;;;4933594;29;20075;-70
2023/07/22 00:33:20;;;;;;;3.05;2.83;;;;;;;;;;4933463;29;20054;-70
2023/07/22 00:35:51;;;;;;;4.95;2.40;;;;;;;;;;4932781;29;20040;-70
2023/07/22 00:38:18;;;;;;;3.88;2.70;;;;;;;;;;4933305;29;20455;-70
2023/07/22 00:40:45;;;;;;;3.17;2.78;;;;;;;;;;4932367;29;20036;-72
2023/07/22 00:43:10;;;;;;;4.75;2.42;;;;;;;;;;4932181;29;20051;-70
2023/07/22 00:45:36;;;;;;;2.85;2.55;;;;;;;;;;4933091;29;20047;-70
2023/07/22 00:48:03;;;;;;;3.88;2.50;;;;;;;;;;4933556;29;20070;-69
2023/07/22 00:50:29;;;;;;;7.55;2.60;;;;;;;;;;4916185;29;20039;-69
2023/07/22 00:52:55;;;;;;;3.58;2.58;;;;;;;;;;4933406;29;20102;-69
2023/07/22 00:55:21;;;;;;;8.82;2.60;;;;;;;;;;4932793;29;20082;-69
2023/07/22 00:57:47;;;;;;;4.20;2.60;;;;;;;;;;4933292;29;20070;-70
2023/07/22 01:00:16;;;;;;;3.38;2.75;;;;;;;;;;4933098;29;20042;-71
2023/07/22 01:02:42;;;;;;;2.65;2.45;;;;;;;;;;4933440;29;20043;-69
2023/07/22 01:05:10;;;;;;;2.60;2.40;;;;;;;;;;4932628;29;20047;-70
2023/07/22 01:07:36;;;;;;;5.35;2.60;;;;;;;;;;4932852;29;20070;-72
2023/07/22 01:10:03;;;;;;;3.33;2.70;;;;;;;;;;4932800;29;20035;-71
2023/07/22 01:12:32;;;;;;;3.40;2.60;;;;;;;;;;4917414;29;20506;-71
2023/07/22 01:14:58;;;;;;;2.70;2.50;;;;;;;;;;4932003;29;20047;-71
2023/07/22 01:17:24;;;;;;;2.67;2.47;;;;;;;;;;4932667;29;20039;-70
2023/07/22 01:19:50;;;;;;;2.83;2.60;;;;;;;;;;4931771;29;20040;-70
2023/07/22 01:22:17;;;;;;;5.95;3.20;;;;;;;;;;4932682;29;20134;-70
2023/07/22 01:24:42;;;;;;;3.03;2.45;;;;;;;;;;4933094;29;20040;-71
2023/07/22 01:27:10;;;;;;;3.33;2.63;;;;;;;;;;4931622;29;20039;-70
2023/07/22 01:29:36;;;;;;;3.72;2.53;;;;;;;;;;4931475;29;20637;-71
2023/07/22 01:32:03;;;;;;;5.28;3.20;;;;;;;;;;4932795;29;20460;-71
2023/07/22 01:34:31;;;;;;;6.25;3.33;;;;;;;;;;4932577;29;20039;-70
2023/07/22 01:36:58;;;;;;;5.20;2.75;;;;;;;;;;4932900;29;20039;-70
2023/07/22 01:39:24;;;;;;;6.03;2.80;;;;;;;;;;4932649;29;20036;-70
2023/07/22 01:41:50;;;;;;;6.15;2.85;;;;;;;;;;4932639;29;20449;-70
2023/07/22 01:44:16;;;;;;;3.17;2.88;;;;;;;;;;4932797;29;20329;-69
2023/07/22 01:46:42;;;;;;;7.95;3.45;;;;;;;;;;4915784;29;20066;-69
2023/07/22 01:49:09;;;;;;;6.88;3.45;;;;;;;;;;4936684;29;20538;-70
2023/07/22 01:51:40;;;;;;;4.93;2.80;;;;;;;;;;4936315;29;20032;-70
2023/07/22 01:54:08;;;;;;;3.53;2.85;;;;;;;;;;4920204;29;20507;-69
2023/07/22 01:56:36;;;;;;;6.45;2.90;;;;;;;;;;4934770;29;20094;-71
2023/07/22 01:59:02;;;;;;;4.13;3.10;;;;;;;;;;4935234;29;20099;-71
2023/07/22 02:01:29;;;;;;;3.42;3.13;;;;;;;;;;4919144;29;20119;-70
2023/07/22 02:03:55;;;;;;;4.25;3.00;;;;;;;;;;4935176;29;20040;-71
2023/07/22 02:06:22;;;;;;;3.42;3.13;;;;;;;;;;4936173;29;20510;-71
2023/07/22 02:08:48;;;;;;;10.52;3.15;;;;;;;;;;4936470;29;20118;-70
2023/07/22 02:11:15;;;;;;;7.00;3.70;;;;;;;;;;4935087;29;20063;-70
2023/07/22 02:13:41;;;;;;;4.00;3.30;;;;;;;;;;4935975;29;20565;-71
2023/07/22 02:16:11;;;;;;;4.65;3.55;;;;;;;;;;4936110;29;20138;-70
2023/07/22 02:18:37;;;;;;;6.07;3.55;;;;;;;;;;4934697;29;20392;-70
2023/07/22 02:21:03;;;;;;;6.75;3.90;;;;;;;;;;4919096;29;20107;-71
2023/07/22 02:23:29;;;;;;;5.25;4.10;;;;;;;;;;4934554;29;20047;-70
2023/07/22 02:25:55;;;;;;;8.90;4.07;;;;;;;;;;4936020;29;20031;-70
2023/07/22 02:28:22;;;;;;;9.20;3.67;;;;;;;;;;4935892;29;20526;-71
2023/07/22 02:30:48;;;;;;;6.85;3.80;;;;;;;;;;4937884;29;20031;-72
2023/07/22 02:33:15;;;;;;;8.90;4.45;;;;;;;;;;4938273;29;20047;-71
2023/07/22 02:35:41;;;;;;;5.25;3.97;;;;;;;;;;4940341;29;20058;-70
2023/07/22 02:38:08;;;;;;;9.93;4.43;;;;;;;;;;4941829;29;20525;-71
2023/07/22 02:40:34;;;;;;;6.10;4.10;;;;;;;;;;4938774;29;20167;-70
2023/07/22 02:43:00;;;;;;;5.95;4.40;;;;;;;;;;4935913;29;20051;-68
2023/07/22 02:45:27;;;;;;;7.15;4.18;;;;;;;;;;4935815;29;20036;-71
2023/07/22 02:47:54;;;;;;;6.85;4.18;;;;;;;;;;4935627;29;20043;-69
2023/07/22 02:50:20;;;;;;;7.75;4.47;;;;;;;;;;4935701;29;20118;-71
2023/07/22 02:52:46;;;;;;;8.27;4.00;;;;;;;;;;4935459;29;20130;-70
2023/07/22 02:55:18;;;;;;;6.47;3.60;;;;;;;;;;4935240;29;20426;-71
2023/07/22 02:57:46;;;;;;;6.72;3.80;;;;;;;;;;4934130;29;20417;-70
2023/07/22 03:00:12;;;;;;;7.07;3.88;;;;;;;;;;4934547;29;20074;-70
2023/07/22 03:02:39;;;;;;;7.32;3.90;;;;;;;;;;4935029;29;20055;-70
2023/07/22 03:05:07;;;;;;;7.63;3.78;;;;;;;;;;4934210;29;20514;-70
2023/07/22 03:07:34;;;;;;;3.95;3.30;;;;;;;;;;4933928;29;20463;-71
2023/07/22 03:10:00;;;;;;;4.78;3.67;;;;;;;;;;4934132;29;20028;-70
2023/07/22 03:12:27;;;;;;;12.80;4.00;;;;;;;;;;4918099;29;20123;-70
2023/07/22 03:14:53;;;;;;;6.75;3.67;;;;;;;;;;4936200;29;20039;-70
2023/07/22 03:17:19;;;;;;;8.85;3.75;;;;;;;;;;4933927;29;20039;-70
2023/07/22 03:19:45;;;;;;;49.42;30.35;;;;;;;;;;4933781;29;20560;-71
2023/07/22 03:22:13;;;;;;;57.10;45.97;;;;;;;;;;4933741;29;20507;-71
2023/07/22 03:24:39;;;;;;;51.90;38.03;;;;;;;;;;4934883;29;20125;-71
2023/07/22 03:27:06;;;;;;;39.90;32.35;;;;;;;;;;4933664;29;20066;-70
2023/07/22 03:29:32;;;;;;;29.45;21.13;;;;;;;;;;4933509;29;20039;-70
2023/07/22 03:31:59;;;;;;;28.15;22.30;;;;;;;;;;4933425;29;20515;-70
2023/07/22 03:34:29;;;;;;;13.10;7.57;;;;;;;;;;4935175;29;20572;-72
2023/07/22 03:36:55;;;;;;;10.93;4.22;;;;;;;;;;4934611;29;20141;-71
2023/07/22 03:39:21;;;;;;;7.50;3.80;;;;;;;;;;4935432;29;20106;-71
2023/07/22 03:41:47;;;;;;;10.95;3.95;;;;;;;;;;4935824;29;20425;-71
2023/07/22 03:44:14;;;;;;;8.55;3.50;;;;;;;;;;4935382;29;20523;-71
2023/07/22 03:46:40;;;;;;;5.80;3.00;;;;;;;;;;4933269;29;20036;-71
2023/07/22 03:49:06;;;;;;;4.30;2.63;;;;;;;;;;4934586;29;20130;-70
2023/07/22 03:51:32;;;;;;;7.15;3.60;;;;;;;;;;4933085;29;20469;-72
2023/07/22 03:53:59;;;;;;;5.43;2.90;;;;;;;;;;4934425;29;20114;-70
2023/07/22 03:56:25;;;;;;;7.93;3.35;;;;;;;;;;4932857;29;20537;-69
2023/07/22 03:58:51;;;;;;;4.90;2.28;;;;;;;;;;4935766;29;20123;-71
2023/07/22 04:01:17;;;;;;;4.95;2.38;;;;;;;;;;4935358;29;20040;-70
2023/07/22 04:03:43;;;;;;;4.57;2.47;;;;;;;;;;4934655;29;20047;-71
2023/07/22 04:06:09;;;;;;;4.20;2.17;;;;;;;;;;4934571;29;20127;-71
2023/07/22 04:08:35;;;;;;;2.55;2.17;;;;;;;;;;4933263;29;20046;-71
2023/07/22 04:11:01;;;;;;;3.47;2.13;;;;;;;;;;4934207;29;20044;-71
2023/07/22 04:13:27;;;;;;;3.72;2.63;;;;;;;;;;4933746;29;20048;-70
2023/07/22 04:15:53;;;;;;;6.05;2.28;;;;;;;;;;4934012;29;20046;-70
2023/07/22 04:18:19;;;;;;;3.42;2.05;;;;;;;;;;4932501;29;20036;-70
2023/07/22 04:20:45;;;;;;;3.90;1.80;;;;;;;;;;4934084;29;20058;-71
2023/07/22 04:23:12;;;;;;;5.60;1.90;;;;;;;;;;4932520;29;20082;-71
2023/07/22 04:25:41;;;;;;;4.95;2.20;;;;;;;;;;4932519;29;20047;-71
2023/07/22 04:28:08;;;;;;;2.10;1.80;;;;;;;;;;4933804;29;20410;-71
2023/07/22 04:30:34;;;;;;;4.40;2.03;;;;;;;;;;4932229;29;20518;-73
2023/07/22 04:33:00;;;;;;;2.35;2.03;;;;;;;;;;4933627;29;20047;-71
2023/07/22 04:35:26;;;;;;;2.55;2.20;;;;;;;;;;4933822;29;20038;-71
2023/07/22 04:37:53;;;;;;;3.38;2.03;;;;;;;;;;4933446;29;20048;-70
2023/07/22 04:40:19;;;;;;;2.28;2.00;;;;;;;;;;4933697;29;20036;-70
2023/07/22 04:42:46;;;;;;;4.20;2.17;;;;;;;;;;4933237;29;20055;-71
2023/07/22 04:45:12;;;;;;;4.18;2.00;;;;;;;;;;4932126;29;20118;-70
2023/07/22 04:47:38;;;;;;;6.30;2.33;;;;;;;;;;4933240;29;20410;-72
2023/07/22 04:50:09;;;;;;;12.20;2.30;;;;;;;;;;4933454;29;20032;-70
2023/07/22 04:52:34;;;;;;;;;;;;;;;;;;4933554;29;20040;-71
2023/07/22 04:55:08;;;;;;;4.20;1.92;;;;;;;;;;4931912;29;20305;-73
2023/07/22 04:57:34;;;;;;;1.90;1.67;;;;;;;;;;4932944;29;20099;-71
2023/07/22 05:00:03;;;;;;;2.40;1.80;;;;;;;;;;4932007;29;20491;-71
2023/07/22 05:02:32;;;;;;;6.18;2.00;;;;;;;;;;4932481;29;20040;-70
2023/07/22 05:04:58;;;;;;;2.67;2.20;;;;;;;;;;4935127;29;20039;-70
2023/07/22 05:07:24;;;;;;;3.92;1.90;;;;;;;;;;4942499;29;20046;-72
2023/07/22 05:09:51;;;;;;;1.80;1.70;;;;;;;;;;4952020;28;20066;-72
2023/07/22 05:12:17;;;;;;;2.17;2.00;;;;;;;;;;4952322;28;20625;-71
2023/07/22 05:14:44;;;;;;;3.70;2.17;;;;;;;;;;4952036;29;20049;-72
2023/07/22 05:17:11;;;;;;;1.92;1.70;;;;;;;;;;4952174;29;20055;-70
2023/07/22 05:19:37;;;;;;;3.80;3.17;;;;;;;;;;4950947;29;20454;-71
2023/07/22 05:22:03;;;;;;;3.92;2.40;;;;;;;;;;4952240;28;20085;-71
2023/07/22 05:24:29;;;;;;;5.13;2.33;;;;;;;;;;4952888;28;20058;-70
2023/07/22 05:26:55;;;;;;;3.10;2.55;;;;;;;;;;4952151;28;20074;-71
2023/07/22 05:29:21;;;;;;;6.07;2.20;;;;;;;;;;4952156;28;20092;-71
2023/07/22 05:31:47;;;;;;;1.77;1.65;;;;;;;;;;4950641;29;20046;-71
2023/07/22 05:34:13;;;;;;;6.35;1.73;;;;;;;;;;4951940;29;20045;-71
2023/07/22 05:36:39;;;;;;;2.70;1.77;;;;;;;;;;4950196;29;20039;-72
2023/07/22 05:39:05;;;;;;;4.13;1.60;;;;;;;;;;4934914;29;20023;-71
2023/07/22 05:41:34;;;;;;;1.58;1.48;;;;;;;;;;4951685;28;20529;-73
2023/07/22 05:44:00;;;;;;;3.47;2.07;;;;;;;;;;4951253;29;20414;-77
2023/07/22 05:46:26;;;;;;;1.67;1.42;;;;;;;;;;4952122;29;20283;-70
2023/07/22 05:48:52;;;;;;;1.80;1.50;;;;;;;;;;4943625;28;20044;-72
2023/07/22 05:51:18;;;;;;;9.40;1.90;;;;;;;;;;4932872;29;20058;-73
2023/07/22 05:53:45;;;;;;;2.95;1.40;;;;;;;;;;4932658;29;20507;-72
2023/07/22 05:56:11;;;;;;;1.67;1.58;;;;;;;;;;4932525;29;20067;-73
2023/07/22 05:58:36;;;;;;;3.58;1.40;;;;;;;;;;4932372;29;20063;-74
2023/07/22 06:01:03;;;;;;;4.22;1.67;;;;;;;;;;4937654;29;20035;-74
2023/07/22 06:03:29;;;;;;;1.80;1.70;;;;;;;;;;4948380;29;20139;-74
2023/07/22 06:05:55;;;;;;;3.30;1.50;;;;;;;;;;4951519;28;20477;-72
2023/07/22 06:08:21;;;;;;;1.40;1.35;;;;;;;;;;4951795;28;20049;-73
2023/07/22 06:10:47;;;;;;;3.78;1.55;;;;;;;;;;4950400;29;20043;-73
2023/07/22 06:13:13;;;;;;;3.03;1.50;;;;;;;;;;4951477;28;20068;-73
2023/07/22 06:15:39;;;;;;;2.50;1.70;;;;;;;;;;4951390;28;20035;-73
2023/07/22 06:18:08;;;;;;;2.40;1.55;;;;;;;;;;4951572;29;20031;-72
2023/07/22 06:20:35;;;;;;;1.70;1.42;;;;;;;;;;4951506;28;20027;-72
2023/07/22 06:23:01;;;;;;;6.63;1.60;;;;;;;;;;4950224;29;20514;-73
2023/07/22 06:25:27;;;;;;;1.45;1.33;;;;;;;;;;4939993;29;20035;-73
2023/07/22 06:27:54;;;;;;;2.20;1.45;;;;;;;;;;4931096;29;20804;-74
2023/07/22 06:30:20;;;;;;;1.20;1.20;;;;;;;;;;4931997;29;20114;-72
2023/07/22 06:32:46;;;;;;;2.55;1.40;;;;;;;;;;4931799;29;20036;-73
2023/07/22 06:35:12;;;;;;;1.60;1.50;;;;;;;;;;4935140;29;20091;-73
2023/07/22 06:37:39;;;;;;;3.88;1.63;;;;;;;;;;4948153;28;20032;-74
2023/07/22 06:40:05;;;;;;;1.98;1.70;;;;;;;;;;4948703;29;20046;-73
2023/07/22 06:42:31;;;;;;;1.88;1.77;;;;;;;;;;4954868;29;20505;-72
2023/07/22 06:44:57;;;;;;;6.32;1.70;;;;;;;;;;4954756;28;20122;-73
2023/07/22 06:47:23;;;;;;;4.95;1.95;;;;;;;;;;4942907;28;20482;-72
2023/07/22 06:49:50;;;;;;;3.10;1.67;;;;;;;;;;4901735;29;20134;-75
2023/07/22 06:52:16;;;;;;;2.47;1.52;;;;;;;;;;4943661;29;20418;-72
2023/07/22 06:54:43;;;;;;;6.30;1.55;;;;;;;;;;4954518;28;20118;-75
2023/07/22 06:57:09;;;;;;;1.88;1.67;;;;;;;;;;4954498;28;20055;-74
2023/07/22 06:59:36;;;;;;;4.30;1.88;;;;;;;;;;4953063;29;20115;-73
2023/07/22 07:02:04;;;;;;;3.38;1.48;;;;;;;;;;4953238;29;20050;-73
2023/07/22 07:04:30;;;;;;;1.92;1.50;;;;;;;;;;4954604;28;20493;-73
2023/07/22 07:06:56;;;;;;;1.42;1.38;;;;;;;;;;4953783;28;20509;-73
2023/07/22 07:09:22;;;;;;;1.65;1.55;;;;;;;;;;4946716;28;20043;-73
2023/07/22 07:11:48;;;;;;;4.93;1.70;;;;;;;;;;4961853;28;20036;-73
2023/07/22 07:14:14;;;;;;;3.03;1.25;;;;;;;;;;4954308;28;20066;-75
2023/07/22 07:16:40;;;;;;;2.10;1.70;;;;;;;;;;4952918;29;20075;-75
2023/07/22 07:19:07;;;;;;;4.60;1.60;;;;;;;;;;4951981;29;20082;-73
2023/07/22 07:21:33;;;;;;;2.75;1.67;;;;;;;;;;4953073;29;20031;-74
2023/07/22 07:23:59;;;;;;;1.95;1.30;;;;;;;;;;4953816;29;20047;-74
2023/07/22 07:26:25;;;;;;;1.65;1.55;;;;;;;;;;4954040;28;20035;-74
2023/07/22 07:28:51;;;;;;;5.78;1.65;;;;;;;;;;4953864;28;20170;-71
2023/07/22 07:31:17;;;;;;;1.70;1.60;;;;;;;;;;4956221;28;20035;-74
2023/07/22 07:33:43;;;;;;;2.15;1.30;;;;;;;;;;4954062;28;20410;-72
2023/07/22 07:36:09;;;;;;;2.03;1.83;;;;;;;;;;4937190;29;20049;-74
2023/07/22 07:38:35;;;;;;;2.75;1.40;;;;;;;;;;4953878;28;20043;-73
2023/07/22 07:41:08;;;;;;;4.35;2.22;;;;;;;;;;4953779;28;20497;-74
2023/07/22 07:43:34;;;;;;;1.58;1.50;;;;;;;;;;4952472;29;20039;-72
2023/07/22 07:46:21;;;;;;;1.67;1.38;;;;;;;;;;4953253;28;20046;-73
2023/07/22 07:48:49;;;;;;;2.75;1.63;;;;;;;;;;4953363;28;20121;-73
2023/07/22 07:51:15;;;;;;;2.92;1.60;;;;;;;;;;4953647;29;20038;-72
2023/07/22 07:53:41;;;;;;;1.77;1.67;;;;;;;;;;4953352;28;20031;-74
2023/07/22 07:56:07;;;;;;;4.85;1.83;;;;;;;;;;4953375;28;20055;-73
2023/07/22 07:58:34;;;;;;;1.67;1.58;;;;;;;;;;4952325;28;20035;-72
2023/07/22 08:01:00;;;;;;;0.98;0.98;;;;;;;;;;4953359;29;20041;-75
2023/07/22 08:03:26;;;;;;;5.95;2.38;;;;;;;;;;4953254;29;20047;-73
2023/07/22 08:05:52;;;;;;;1.52;1.42;;;;;;;;;;4936111;29;20035;-74
2023/07/22 08:08:18;;;;;;;2.38;1.50;;;;;;;;;;4968706;28;20133;-73
2023/07/22 08:10:44;;;;;;;7.88;2.40;;;;;;;;;;4953896;29;20122;-74
2023/07/22 08:13:10;;;;;;;1.20;1.20;;;;;;;;;;4952930;28;20338;-73
2023/07/22 08:15:36;;;;;;;1.48;1.38;;;;;;;;;;4953433;28;20601;-73
2023/07/22 08:18:03;;;;;;;1.95;1.45;;;;;;;;;;4952998;28;20051;-74
2023/07/22 08:20:30;;;;;;;1.50;1.40;;;;;;;;;;4953161;28;20074;-73
2023/07/22 08:22:56;;;;;;;1.95;1.30;;;;;;;;;;4936049;29;20535;-74
2023/07/22 08:25:22;;;;;;;1.83;1.27;;;;;;;;;;4952112;29;20035;-74
2023/07/22 08:27:48;;;;;;;7.03;0.93;;;;;;;;;;4953061;29;20394;-74
2023/07/22 08:30:14;;;;;;;1.40;1.30;;;;;;;;;;4956094;29;20035;-76
2023/07/22 08:32:40;;;;;;;1.25;1.17;;;;;;;;;;4960394;29;20067;-74
2023/07/22 08:35:06;;;;;;;1.45;0.90;;;;;;;;;;4958276;29;20039;-74
2023/07/22 08:37:32;;;;;;;1.35;1.10;;;;;;;;;;4953418;28;20039;-73
2023/07/22 08:39:58;;;;;;;1.83;1.02;;;;;;;;;;4952433;29;20043;-75
2023/07/22 08:42:24;;;;;;;2.15;0.90;;;;;;;;;;4954332;28;20043;-73
2023/07/22 08:44:50;;;;;;;1.17;1.13;;;;;;;;;;4952496;29;20565;-74
2023/07/22 08:47:16;;;;;;;10.70;1.20;;;;;;;;;;4953623;28;20103;-74
2023/07/22 08:49:44;;;;;;;1.30;1.30;;;;;;;;;;4952381;29;20049;-74
2023/07/22 08:52:10;;;;;;;1.58;1.45;;;;;;;;;;4953581;29;20098;-75
2023/07/22 08:54:36;;;;;;;2.33;1.55;;;;;;;;;;4953423;28;20043;-75
2023/07/22 08:57:02;;;;;;;3.05;0.90;;;;;;;;;;4935098;29;20426;-74
2023/07/22 08:59:28;;;;;;;1.52;1.00;;;;;;;;;;4952302;29;20039;-75
2023/07/22 09:01:55;;;;;;;2.13;1.08;;;;;;;;;;4953825;29;20525;-75
2023/07/22 09:04:22;;;;;;;1.95;1.30;;;;;;;;;;4951056;29;20073;-75
2023/07/22 09:06:48;;;;;;;2.20;1.17;;;;;;;;;;4951283;29;20163;-74
2023/07/22 09:09:15;;;;;;;1.08;1.08;;;;;;;;;;4951224;29;20043;-73
2023/07/22 09:11:41;;;;;;;1.80;1.50;;;;;;;;;;4952508;28;20525;-73
2023/07/22 09:14:07;;;;;;;2.97;0.90;;;;;;;;;;4951388;29;20110;-74
2023/07/22 09:16:33;;;;;;;1.25;0.98;;;;;;;;;;4951345;29;20039;-74
2023/07/22 09:18:59;;;;;;;1.08;1.02;;;;;;;;;;4950720;29;20096;-75
2023/07/22 09:21:27;;;;;;;1.55;1.13;;;;;;;;;;4952694;28;20046;-72
2023/07/22 09:23:53;;;;;;;2.10;1.05;;;;;;;;;;4951210;29;20081;-74
2023/07/22 09:26:20;;;;;;;0.90;0.90;;;;;;;;;;4952826;29;20095;-75
2023/07/22 09:28:50;;;;;;;4.03;1.20;;;;;;;;;;4951171;29;20506;-75
2023/07/22 09:31:17;;;;;;;6.60;1.65;;;;;;;;;;4952262;28;20079;-74
2023/07/22 09:33:43;;;;;;;2.70;1.30;;;;;;;;;;4952434;29;20039;-74
2023/07/22 09:36:10;;;;;;;5.30;1.58;;;;;;;;;;4952133;29;20036;-75
2023/07/22 09:38:36;;;;;;;1.10;1.00;;;;;;;;;;4952463;29;20450;-74
2023/07/22 09:41:01;;;;;;;0.88;0.88;;;;;;;;;;4936555;29;20043;-74
2023/07/22 09:43:29;;;;;;;3.15;1.60;;;;;;;;;;4952866;28;20051;-75
2023/07/22 09:45:55;;;;;;;1.10;1.10;;;;;;;;;;4952112;29;20040;-75
2023/07/22 09:48:21;;;;;;;1.02;0.90;;;;;;;;;;4952448;28;20042;-74
2023/07/22 09:50:47;;;;;;;0.90;0.90;;;;;;;;;;4951735;29;20063;-73
2023/07/22 09:53:14;;;;;;;2.97;0.93;;;;;;;;;;4934287;29;20070;-73
2023/07/22 09:55:40;;;;;;;0.95;0.95;;;;;;;;;;4951661;28;20051;-72
2023/07/22 09:58:09;;;;;;;1.98;1.00;;;;;;;;;;4950442;29;20047;-75
2023/07/22 10:00:35;;;;;;;1.20;1.10;;;;;;;;;;4952334;28;20079;-73
2023/07/22 10:03:04;;;;;;;1.10;0.90;;;;;;;;;;4952815;28;20138;-76
2023/07/22 10:05:30;;;;;;;2.40;1.08;;;;;;;;;;4953570;28;20032;-76
2023/07/22 10:07:57;;;;;;;5.57;1.40;;;;;;;;;;4952647;28;20526;-74
2023/07/22 10:10:25;;;;;;;1.80;1.40;;;;;;;;;;4957542;28;20043;-74
2023/07/22 10:12:51;;;;;;;1.10;1.10;;;;;;;;;;4957426;28;20075;-75
2023/07/22 10:15:17;;;;;;;1.58;1.42;;;;;;;;;;4956190;29;20039;-73
2023/07/22 10:17:43;;;;;;;1.42;1.00;;;;;;;;;;4957013;28;20069;-74
2023/07/22 10:20:14;;;;;;;5.88;1.25;;;;;;;;;;4956672;28;20036;-73
2023/07/22 10:22:41;;;;;;;2.60;1.00;;;;;;;;;;4955778;29;20043;-74
2023/07/22 10:25:08;;;;;;;1.98;1.50;;;;;;;;;;4956157;28;20046;-72
2023/07/22 10:27:34;;;;;;;4.47;1.17;;;;;;;;;;4956314;28;20035;-74
2023/07/22 10:30:00;;;;;;;4.47;1.30;;;;;;;;;;4955410;28;20101;-74
2023/07/22 10:32:37;;;;;;;3.88;1.30;;;;;;;;;;4955345;28;20561;-74
2023/07/22 10:35:03;;;;;;;2.92;1.35;;;;;;;;;;4954804;28;20207;-75
2023/07/22 10:37:32;;;;;;;2.45;1.30;;;;;;;;;;4953506;29;20035;-74
2023/07/22 10:40:02;;;;;;;1.50;1.20;;;;;;;;;;4953861;29;20046;-74
2023/07/22 10:42:31;;;;;;;1.17;1.02;;;;;;;;;;4954863;28;20097;-74
2023/07/22 10:44:58;;;;;;;0.70;0.70;;;;;;;;;;4954848;28;20046;-74
2023/07/22 10:47:34;;;;;;;1.35;1.00;;;;;;;;;;4953666;29;20034;-75
2023/07/22 10:50:05;;;;;;;1.17;1.08;;;;;;;;;;4954554;28;20391;-73
2023/07/22 10:52:41;;;;;;;2.72;1.50;;;;;;;;;;4953271;29;20055;-74
2023/07/22 10:55:15;;;;;;;1.50;1.33;;;;;;;;;;4952916;29;20087;-73
2023/07/22 10:57:48;;;;;;;1.50;1.10;;;;;;;;;;4954530;29;20051;-74
2023/07/22 11:00:19;;;;;;;6.30;1.52;;;;;;;;;;4953258;29;20043;-74
2023/07/22 11:02:44;;;;;;;;;;;;;;;;;;4954826;28;20526;-74
2023/07/22 11:05:11;;;;;;;2.42;1.30;;;;;;;;;;4953290;29;20053;-76
2023/07/22 11:07:43;;;;;;;1.75;1.00;;;;;;;;;;4953114;29;20130;-73
2023/07/22 11:10:11;;;;;;;1.63;1.10;;;;;;;;;;4954313;28;20035;-74
2023/07/22 11:12:38;;;;;;;2.58;1.10;;;;;;;;;;4954322;28;20383;-74
2023/07/22 11:15:05;;;;;;;2.15;0.88;;;;;;;;;;4953056;29;20581;-74
2023/07/22 11:17:33;;;;;;;1.50;1.40;;;;;;;;;;4954315;28;20502;-75
2023/07/22 11:20:00;;;;;;;1.40;1.40;;;;;;;;;;4952269;28;20414;-74
2023/07/22 11:22:30;;;;;;;4.03;1.35;;;;;;;;;;4954518;28;20035;-74
2023/07/22 11:24:57;;;;;;;1.00;1.00;;;;;;;;;;4955023;29;20051;-73
2023/07/22 11:27:24;;;;;;;1.20;1.20;;;;;;;;;;4955848;28;20140;-76
2023/07/22 11:29:50;;;;;;;2.22;1.10;;;;;;;;;;4955576;28;20525;-74
2023/07/22 11:32:16;;;;;;;1.55;1.45;;;;;;;;;;4954447;29;20043;-73
2023/07/22 11:34:44;;;;;;;1.42;1.33;;;;;;;;;;4955526;29;20110;-74
2023/07/22 11:37:11;;;;;;;2.00;1.20;;;;;;;;;;4962041;29;20035;-73
2023/07/22 11:39:37;;;;;;;3.50;1.13;;;;;;;;;;4959593;29;20039;-73
2023/07/22 11:42:03;;;;;;;3.40;1.13;;;;;;;;;;4954633;29;20031;-74
2023/07/22 11:44:29;;;;;;;1.02;1.00;;;;;;;;;;4954199;28;20039;-73
2023/07/22 11:47:07;;;;;;;1.95;1.02;;;;;;;;;;4953539;28;20031;-72
2023/07/22 11:49:34;;;;;;;1.40;1.20;;;;;;;;;;4952569;29;20035;-74
2023/07/22 11:52:01;;;;;;;0.80;0.80;;;;;;;;;;4952570;29;20523;-74
2023/07/22 11:54:27;;;;;;;1.58;1.48;;;;;;;;;;4953415;28;20050;-74
2023/07/22 11:56:54;;;;;;;1.48;1.25;;;;;;;;;;4953563;28;20062;-74
2023/07/22 11:59:40;;;;;;;3.67;2.00;;;;;;;;;;4953495;28;20122;-73
2023/07/22 12:02:06;;;;;;;1.75;1.27;;;;;;;;;;4953235;28;20514;-74
2023/07/22 12:04:35;;;;;;;1.05;1.05;;;;;;;;;;4953364;28;20127;-74
2023/07/22 12:07:01;;;;;;;3.05;1.20;;;;;;;;;;4953263;28;20039;-73
2023/07/22 12:09:28;;;;;;;1.98;1.23;;;;;;;;;;4953303;29;20042;-74
2023/07/22 12:11:58;;;;;;;1.20;1.10;;;;;;;;;;4953355;28;20509;-74
2023/07/22 12:14:25;;;;;;;1.83;1.30;;;;;;;;;;4953124;28;20516;-73
2023/07/22 12:16:58;;;;;;;2.58;1.23;;;;;;;;;;4952006;29;20039;-74
2023/07/22 12:19:24;;;;;;;2.15;1.40;;;;;;;;;;4952979;28;20142;-73
2023/07/22 12:21:50;;;;;;;3.72;0.93;;;;;;;;;;4953152;28;20519;-73
2023/07/22 12:24:16;;;;;;;1.17;1.10;;;;;;;;;;4967517;28;20540;-76
2023/07/22 12:26:42;;;;;;;1.92;1.20;;;;;;;;;;4953013;29;20031;-74
2023/07/22 12:29:08;;;;;;;1.15;1.10;;;;;;;;;;4952722;29;20047;-74
2023/07/22 12:31:35;;;;;;;3.65;1.20;;;;;;;;;;4954019;28;20184;-74
2023/07/22 12:34:01;;;;;;;2.67;1.40;;;;;;;;;;4952649;28;20544;-73
2023/07/22 12:36:27;;;;;;;5.93;1.40;;;;;;;;;;4951733;29;20035;-74
2023/07/22 12:38:53;;;;;;;2.40;1.02;;;;;;;;;;4952730;29;20039;-72
2023/07/22 12:41:19;;;;;;;4.65;1.40;;;;;;;;;;4952513;29;20041;-72
2023/07/22 12:43:46;;;;;;;1.27;1.17;;;;;;;;;;4953078;29;20055;-73
2023/07/22 12:46:11;;;;;;;2.45;1.40;;;;;;;;;;4951658;29;20514;-73
2023/07/22 12:48:38;;;;;;;1.42;1.30;;;;;;;;;;4952884;28;20125;-73
2023/07/22 12:51:04;;;;;;;4.93;1.50;;;;;;;;;;4953013;29;20035;-74
2023/07/22 12:53:30;;;;;;;2.75;1.08;;;;;;;;;;4953094;28;20142;-74
2023/07/22 12:55:56;;;;;;;5.85;1.30;;;;;;;;;;4951587;29;20058;-73
2023/07/22 12:58:23;;;;;;;3.40;2.00;;;;;;;;;;4952467;29;20130;-73
2023/07/22 13:00:49;;;;;;;1.20;1.10;;;;;;;;;;4952578;29;20205;-74
2023/07/22 13:03:15;;;;;;;1.15;1.13;;;;;;;;;;4952132;28;20078;-73
2023/07/22 13:05:41;;;;;;;1.65;1.55;;;;;;;;;;4952506;28;20043;-74
2023/07/22 13:08:06;;;;;;;2.72;1.58;;;;;;;;;;4952074;28;20125;-73
2023/07/22 13:10:39;;;;;;;5.75;1.50;;;;;;;;;;4951147;29;20035;-74
2023/07/22 13:13:05;;;;;;;1.27;1.17;;;;;;;;;;4950731;29;20077;-74
2023/07/22 13:15:32;;;;;;;1.25;1.15;;;;;;;;;;4950976;29;20405;-73
2023/07/22 13:17:58;;;;;;;1.35;1.25;;;;;;;;;;4952123;29;20110;-75
2023/07/22 13:20:23;;;;;;;8.13;1.90;;;;;;;;;;4950773;29;20506;-74
2023/07/22 13:22:50;;;;;;;2.53;2.35;;;;;;;;;;4952042;28;20055;-74
2023/07/22 13:25:16;;;;;;;4.97;3.50;;;;;;;;;;4951782;29;20027;-74
2023/07/22 13:27:42;;;;;;;2.60;2.00;;;;;;;;;;4952151;28;20041;-74
2023/07/22 13:30:09;;;;;;;1.90;1.73;;;;;;;;;;4951747;28;20027;-74
2023/07/22 13:32:35;;;;;;;3.00;1.80;;;;;;;;;;4952015;29;20039;-75
2023/07/22 13:35:01;;;;;;;7.13;1.60;;;;;;;;;;4951759;28;20035;-74
2023/07/22 13:37:28;;;;;;;4.03;1.60;;;;;;;;;;4952001;28;20090;-75
2023/07/22 13:39:55;;;;;;;1.85;1.75;;;;;;;;;;4951987;28;20086;-75
2023/07/22 13:42:21;;;;;;;4.00;1.80;;;;;;;;;;4951666;28;20106;-74
2023/07/22 13:44:47;;;;;;;2.42;1.92;;;;;;;;;;4955962;28;20043;-74
2023/07/22 13:47:13;;;;;;;1.50;1.40;;;;;;;;;;4954495;29;20533;-74
2023/07/22 13:49:39;;;;;;;2.42;1.45;;;;;;;;;;4938726;29;20163;-75
2023/07/22 13:52:06;;;;;;;2.35;1.65;;;;;;;;;;4955738;28;20039;-74
2023/07/22 13:54:31;;;;;;;3.10;2.00;;;;;;;;;;4938491;29;20050;-74
2023/07/22 13:56:58;;;;;;;2.47;2.05;;;;;;;;;;4955664;28;20186;-74
2023/07/22 13:59:24;;;;;;;8.35;2.13;;;;;;;;;;4955344;28;20039;-73
2023/07/22 14:01:49;;;;;;;3.95;2.03;;;;;;;;;;4955585;28;20039;-74
2023/07/22 14:04:15;;;;;;;2.03;1.88;;;;;;;;;;4955274;28;20470;-73
2023/07/22 14:06:41;;;;;;;1.90;1.73;;;;;;;;;;4955502;28;20035;-75
2023/07/22 14:09:08;;;;;;;7.28;1.73;;;;;;;;;;4955296;28;20125;-73
2023/07/22 14:11:34;;;;;;;3.22;1.88;;;;;;;;;;4955483;28;20035;-74
2023/07/22 14:14:00;;;;;;;2.20;1.65;;;;;;;;;;4954501;29;20098;-74
2023/07/22 14:16:26;;;;;;;2.05;1.85;;;;;;;;;;4955617;28;20505;-74
2023/07/22 14:18:52;;;;;;;2.15;1.88;;;;;;;;;;4955542;29;20094;-75
2023/07/22 14:21:19;;;;;;;3.42;2.03;;;;;;;;;;4955383;28;20097;-74
2023/07/22 14:23:45;;;;;;;2.10;1.90;;;;;;;;;;4955418;28;20051;-74
2023/07/22 14:26:11;;;;;;;3.03;1.95;;;;;;;;;;4955854;29;20494;-74
2023/07/22 14:28:37;;;;;;;3.33;1.70;;;;;;;;;;4954139;29;20506;-75
2023/07/22 14:31:03;;;;;;;3.97;2.03;;;;;;;;;;4957909;28;20035;-73
2023/07/22 14:33:29;;;;;;;2.70;1.88;;;;;;;;;;4972606;28;20037;-73
2023/07/22 14:35:56;;;;;;;1.95;1.42;;;;;;;;;;4957667;28;20035;-74
2023/07/22 14:38:22;;;;;;;1.58;1.48;;;;;;;;;;4957192;28;20074;-73
2023/07/22 14:40:49;;;;;;;8.02;1.30;;;;;;;;;;4960957;29;20039;-74